createdAt,value
2018-08-30T00:00:02.139Z,99.90
2018-08-30T00:02:31.574Z,99.90
2018-08-30T00:05:00.943Z,99.90
2018-08-30T00:07:30.309Z,99.90
2018-08-30T00:09:59.684Z,99.90
2018-08-30T00:12:29.076Z,99.90
2018-08-30T00:14:58.602Z,99.90
2018-08-30T00:17:27.922Z,99.90
2018-08-30T00:19:57.249Z,99.90
2018-08-30T00:22:26.645Z,99.90
2018-08-30T00:24:56.135Z,99.90
2018-08-30T00:27:25.516Z,99.90
2018-08-30T00:29:54.981Z,99.90
2018-08-30T00:32:24.587Z,99.90
2018-08-30T00:34:54.605Z,99.90
2018-08-30T00:37:24.021Z,99.90
2018-08-30T00:39:53.378Z,99.90
2018-08-30T00:42:22.927Z,99.90
2018-08-30T00:44:52.315Z,99.90
2018-08-30T00:47:22.370Z,99.90
2018-08-30T00:49:52.159Z,99.90
2018-08-30T00:52:21.595Z,99.90
2018-08-30T00:54:50.912Z,99.90
2018-08-30T00:57:20.377Z,99.90
2018-08-30T00:59:51.506Z,99.90
2018-08-30T01:02:20.845Z,99.90
2018-08-30T01:04:50.359Z,99.90
2018-08-30T01:07:19.775Z,99.90
2018-08-30T01:09:49.214Z,99.90
2018-08-30T01:12:18.820Z,99.90
2018-08-30T01:14:48.409Z,99.90
2018-08-30T01:17:18.049Z,99.90
2018-08-30T01:19:47.554Z,99.90
2018-08-30T01:22:17.010Z,99.90
2018-08-30T01:24:46.514Z,99.90
2018-08-30T01:27:16.292Z,99.90
2018-08-30T01:29:45.681Z,99.90
2018-08-30T01:32:15.276Z,99.90
2018-08-30T01:34:44.752Z,99.90
2018-08-30T01:37:14.130Z,99.90
2018-08-30T01:39:43.461Z,99.90
2018-08-30T01:42:12.905Z,99.90
2018-08-30T01:44:42.384Z,99.90
2018-08-30T01:47:11.976Z,99.90
2018-08-30T01:49:41.439Z,99.90
2018-08-30T01:52:12.016Z,99.90
2018-08-30T01:54:42.415Z,99.90
2018-08-30T01:57:11.674Z,99.90
2018-08-30T01:59:40.831Z,99.90
2018-08-30T02:02:10.392Z,99.90
2018-08-30T02:04:39.749Z,99.90
2018-08-30T02:07:09.211Z,99.90
2018-08-30T02:09:38.706Z,99.90
2018-08-30T02:12:08.226Z,99.90
2018-08-30T02:14:37.646Z,99.90
2018-08-30T02:17:07.113Z,99.90
2018-08-30T02:19:36.504Z,99.90
2018-08-30T02:22:06.247Z,99.90
2018-08-30T02:24:35.629Z,99.90
2018-08-30T02:27:05.163Z,99.90
2018-08-30T02:29:34.641Z,99.90
2018-08-30T02:32:04.298Z,99.90
2018-08-30T02:34:33.642Z,99.90
2018-08-30T02:37:03.927Z,99.90
2018-08-30T02:39:33.385Z,99.90
2018-08-30T02:42:02.857Z,99.90
2018-08-30T02:44:32.335Z,99.90
2018-08-30T02:47:01.713Z,99.90
2018-08-30T02:49:31.104Z,99.90
2018-08-30T02:52:00.583Z,99.90
2018-08-30T02:54:30.279Z,99.90
2018-08-30T02:56:59.735Z,99.90
2018-08-30T02:59:29.158Z,99.90
2018-08-30T03:01:58.931Z,99.90
2018-08-30T03:04:28.443Z,99.90
2018-08-30T03:06:57.774Z,99.90
2018-08-30T03:09:27.251Z,99.90
2018-08-30T03:11:56.768Z,99.90
2018-08-30T03:14:26.154Z,99.90
2018-08-30T03:16:58.606Z,99.90
2018-08-30T03:19:28.215Z,99.90
2018-08-30T03:21:57.637Z,99.90
2018-08-30T03:24:27.051Z,99.90
2018-08-30T03:26:56.514Z,99.90
2018-08-30T03:29:25.907Z,99.90
2018-08-30T03:31:55.392Z,99.90
2018-08-30T03:34:25.912Z,99.90
2018-08-30T03:36:55.449Z,99.90
2018-08-30T03:39:24.910Z,99.90
2018-08-30T03:41:54.307Z,99.90
2018-08-30T03:44:23.781Z,99.90
2018-08-30T03:46:53.579Z,99.90
2018-08-30T03:49:22.940Z,99.90
2018-08-30T03:51:52.238Z,99.90
2018-08-30T03:54:22.398Z,99.90
2018-08-30T03:56:51.977Z,99.90
2018-08-30T03:59:21.359Z,99.90
2018-08-30T04:01:50.724Z,99.90
2018-08-30T04:04:20.234Z,99.90
2018-08-30T04:06:49.697Z,99.90
2018-08-30T04:09:19.024Z,99.90
2018-08-30T04:11:48.326Z,99.90
2018-08-30T04:14:17.718Z,99.90
2018-08-30T04:16:47.286Z,99.90
2018-08-30T04:19:16.720Z,99.90
2018-08-30T04:21:46.269Z,99.90
2018-08-30T04:24:15.761Z,99.90
2018-08-30T04:26:45.117Z,99.90
2018-08-30T04:29:15.037Z,99.90
2018-08-30T04:31:44.613Z,99.90
2018-08-30T04:34:13.935Z,99.90
2018-08-30T04:36:43.335Z,99.90
2018-08-30T04:39:12.851Z,99.90
2018-08-30T04:41:42.197Z,99.90
2018-08-30T04:44:11.588Z,99.90
2018-08-30T04:46:40.926Z,99.90
2018-08-30T04:49:10.573Z,99.90
2018-08-30T04:51:39.890Z,99.90
2018-08-30T04:54:09.369Z,99.90
2018-08-30T04:56:38.781Z,99.90
2018-08-30T04:59:08.332Z,99.90
2018-08-30T05:01:37.833Z,99.90
2018-08-30T05:04:07.275Z,99.90
2018-08-30T05:06:36.775Z,99.90
2018-08-30T05:09:09.841Z,99.90
2018-08-30T05:11:39.271Z,99.90
2018-08-30T05:14:09.148Z,99.90
2018-08-30T05:16:38.972Z,99.90
2018-08-30T05:19:08.394Z,99.90
2018-08-30T05:21:37.748Z,99.90
2018-08-30T05:24:07.426Z,99.90
2018-08-30T05:26:36.895Z,99.90
2018-08-30T05:29:06.378Z,99.90
2018-08-30T05:31:37.923Z,99.90
2018-08-30T05:34:07.438Z,99.90
2018-08-30T05:36:36.767Z,99.90
2018-08-30T05:39:07.673Z,99.90
2018-08-30T05:41:37.184Z,99.90
2018-08-30T05:44:07.163Z,99.90
2018-08-30T05:46:36.912Z,99.90
2018-08-30T05:49:06.324Z,99.90
2018-08-30T05:51:35.895Z,99.90
2018-08-30T05:54:05.350Z,99.90
2018-08-30T05:56:34.920Z,99.90
2018-08-30T05:59:04.283Z,99.90
2018-08-30T06:01:33.682Z,99.90
2018-08-30T06:04:03.061Z,99.90
2018-08-30T06:06:32.640Z,99.90
2018-08-30T06:09:01.983Z,99.90
2018-08-30T06:11:31.387Z,99.90
2018-08-30T06:14:00.945Z,99.90
2018-08-30T06:16:30.415Z,99.90
2018-08-30T06:18:59.788Z,99.90
2018-08-30T06:21:29.118Z,99.90
2018-08-30T06:23:58.652Z,99.90
2018-08-30T06:26:28.112Z,99.90
2018-08-30T06:28:57.560Z,99.90
2018-08-30T06:31:26.990Z,99.90
2018-08-30T06:33:57.035Z,99.90
2018-08-30T06:36:27.401Z,99.90
2018-08-30T06:38:56.952Z,99.90
2018-08-30T06:41:26.314Z,99.90
2018-08-30T06:43:55.798Z,99.90
2018-08-30T06:46:25.235Z,99.90
2018-08-30T06:48:54.619Z,99.90
2018-08-30T06:51:25.018Z,99.90
2018-08-30T06:53:54.476Z,99.90
2018-08-30T06:56:23.890Z,99.90
2018-08-30T06:58:53.194Z,99.90
2018-08-30T07:01:22.638Z,99.90
2018-08-30T07:03:52.190Z,99.90
2018-08-30T07:06:21.650Z,99.90
2018-08-30T07:08:51.301Z,99.90
2018-08-30T07:11:20.709Z,99.90
2018-08-30T07:13:50.183Z,99.90
2018-08-30T07:16:19.697Z,99.90
2018-08-30T07:18:49.030Z,99.90
2018-08-30T07:21:18.400Z,99.90
2018-08-30T07:23:47.731Z,99.90
2018-08-30T07:26:17.111Z,99.90
2018-08-30T07:28:46.582Z,99.90
2018-08-30T07:31:15.960Z,99.90
2018-08-30T07:33:45.309Z,99.90
2018-08-30T07:36:14.745Z,99.90
2018-08-30T07:38:44.075Z,99.90
2018-08-30T07:41:13.540Z,99.90
2018-08-30T07:43:43.025Z,99.90
2018-08-30T07:46:12.445Z,99.90
2018-08-30T07:48:41.895Z,99.90
2018-08-30T07:51:11.307Z,99.90
2018-08-30T07:53:40.660Z,99.90
2018-08-30T07:56:10.291Z,99.90
2018-08-30T07:58:39.620Z,99.90
2018-08-30T08:01:09.041Z,99.90
2018-08-30T08:03:39.149Z,99.90
2018-08-30T08:06:08.541Z,99.90
2018-08-30T08:08:37.822Z,99.90
2018-08-30T08:11:07.254Z,99.90
2018-08-30T08:13:36.711Z,99.90
2018-08-30T08:16:06.400Z,99.90
2018-08-30T08:18:36.439Z,99.90
2018-08-30T08:21:05.857Z,99.90
2018-08-30T08:23:35.289Z,99.90
2018-08-30T08:26:04.957Z,99.90
2018-08-30T08:28:34.420Z,99.90
2018-08-30T08:31:03.973Z,99.90
2018-08-30T08:33:33.316Z,99.90
2018-08-30T08:36:03.272Z,99.90
2018-08-30T08:38:32.655Z,99.90
2018-08-30T08:41:02.879Z,99.90
2018-08-30T08:43:32.172Z,99.90
2018-08-30T08:46:01.543Z,99.90
2018-08-30T08:48:30.937Z,99.90
2018-08-30T08:51:00.345Z,99.90
2018-08-30T08:53:29.904Z,99.90
2018-08-30T08:55:59.314Z,99.90
2018-08-30T08:58:30.322Z,99.90
2018-08-30T09:00:59.652Z,99.90
2018-08-30T09:03:29.052Z,99.90
2018-08-30T09:05:58.545Z,99.90
2018-08-30T09:08:28.818Z,99.90
2018-08-30T09:10:58.283Z,99.90
2018-08-30T09:13:28.405Z,99.90
2018-08-30T09:15:57.975Z,99.90
2018-08-30T09:18:27.406Z,99.90
2018-08-30T09:20:56.701Z,99.90
2018-08-30T09:23:26.062Z,99.90
2018-08-30T09:25:55.432Z,99.90
2018-08-30T09:28:24.922Z,99.90
2018-08-30T09:30:54.358Z,99.90
2018-08-30T09:33:23.978Z,99.90
2018-08-30T09:35:53.356Z,99.90
2018-08-30T09:38:22.723Z,99.90
2018-08-30T09:40:52.076Z,99.90
2018-08-30T09:43:22.144Z,99.90
2018-08-30T09:45:51.562Z,99.90
2018-08-30T09:48:21.251Z,99.90
2018-08-30T09:50:50.717Z,99.90
2018-08-30T09:53:20.224Z,99.90
2018-08-30T09:55:50.292Z,99.90
2018-08-30T09:58:20.439Z,99.90
2018-08-30T10:00:54.981Z,99.90
2018-08-30T10:03:25.164Z,99.90
2018-08-30T10:05:54.629Z,99.90
2018-08-30T10:08:24.926Z,99.90
2018-08-30T10:10:55.305Z,99.90
2018-08-30T10:13:24.705Z,99.90
2018-08-30T10:15:54.420Z,99.90
2018-08-30T10:18:23.732Z,99.90
2018-08-30T10:20:53.422Z,99.90
2018-08-30T10:23:22.737Z,99.90
2018-08-30T10:25:52.420Z,99.90
2018-08-30T10:28:22.453Z,99.90
2018-08-30T10:30:51.835Z,99.90
2018-08-30T10:33:21.739Z,99.90
2018-08-30T10:35:51.270Z,99.90
2018-08-30T10:38:20.698Z,99.90
2018-08-30T10:40:50.093Z,99.90
2018-08-30T10:43:19.453Z,99.90
2018-08-30T10:45:48.881Z,99.90
2018-08-30T10:48:19.173Z,99.90
2018-08-30T10:50:48.596Z,99.90
2018-08-30T10:53:17.978Z,99.90
2018-08-30T10:55:47.314Z,99.90
2018-08-30T10:58:16.752Z,99.90
2018-08-30T11:00:46.164Z,99.90
2018-08-30T11:03:16.007Z,99.90
2018-08-30T11:05:45.727Z,99.90
2018-08-30T11:08:15.063Z,99.90
2018-08-30T11:10:45.326Z,99.90
2018-08-30T11:13:14.982Z,99.90
2018-08-30T11:15:44.296Z,99.90
2018-08-30T11:18:13.657Z,99.90
2018-08-30T11:20:43.156Z,99.90
2018-08-30T11:23:12.550Z,99.90
2018-08-30T11:25:42.993Z,99.90
2018-08-30T11:28:12.568Z,99.90
2018-08-30T11:30:42.678Z,99.90
2018-08-30T11:33:12.043Z,99.90
2018-08-30T11:35:41.462Z,95.80
2018-08-30T11:38:12.011Z,93.70
2018-08-30T11:40:41.370Z,97.00
2018-08-30T11:43:10.779Z,95.70
2018-08-30T11:45:40.813Z,92.70
2018-08-30T11:48:11.287Z,84.90
2018-08-30T11:50:40.648Z,82.50
2018-08-30T11:53:10.063Z,77.40
2018-08-30T11:55:39.460Z,84.00
2018-08-30T11:58:09.249Z,78.30
2018-08-30T12:00:38.865Z,88.80
2018-08-30T12:03:08.383Z,80.20
2018-08-30T12:05:37.827Z,80.10
2018-08-30T12:08:07.331Z,76.40
2018-08-30T12:10:37.337Z,79.40
2018-08-30T12:13:06.614Z,72.70
2018-08-30T12:15:36.004Z,75.00
2018-08-30T12:18:05.340Z,69.80
2018-08-30T12:20:34.851Z,76.60
2018-08-30T12:23:04.155Z,77.50
2018-08-30T12:25:33.858Z,76.30
2018-08-30T12:28:06.378Z,82.60
2018-08-30T12:30:35.804Z,89.30
2018-08-30T12:33:05.490Z,83.70
2018-08-30T12:35:34.926Z,79.40
2018-08-30T12:38:04.323Z,80.60
2018-08-30T12:40:33.893Z,82.00
2018-08-30T12:43:03.334Z,75.00
2018-08-30T12:45:32.650Z,67.90
2018-08-30T12:48:02.091Z,72.40
2018-08-30T12:50:31.801Z,78.30
2018-08-30T12:53:23.596Z,87.00
2018-08-30T12:56:02.874Z,89.40
2018-08-30T12:58:49.875Z,91.70
2018-08-30T13:01:20.303Z,94.30
2018-08-30T13:03:51.464Z,93.90
2018-08-30T13:06:25.540Z,91.30
2018-08-30T13:09:06.961Z,94.20
2018-08-30T13:11:37.457Z,89.60
2018-08-30T13:14:08.535Z,86.30
2018-08-30T13:16:38.839Z,90.50
2018-08-30T13:19:12.418Z,89.40
2018-08-30T13:21:41.505Z,91.20
2018-08-30T13:24:10.853Z,88.30
2018-08-30T13:26:39.954Z,88.00
2018-08-30T13:29:09.655Z,92.40
2018-08-30T13:31:39.263Z,92.40
2018-08-30T13:34:08.540Z,92.70
2018-08-30T13:36:37.995Z,95.80
2018-08-30T13:39:10.506Z,94.40
2018-08-30T13:41:41.210Z,93.30
2018-08-30T13:44:11.780Z,95.80
2018-08-30T13:46:42.550Z,96.20
2018-08-30T13:49:12.497Z,94.40
2018-08-30T13:51:41.742Z,91.50
2018-08-30T13:54:11.299Z,91.80
2018-08-30T13:56:40.520Z,88.30
2018-08-30T13:59:10.043Z,83.30
2018-08-30T14:01:39.368Z,82.70
2018-08-30T14:04:09.429Z,89.80
2018-08-30T14:06:38.768Z,85.10
2018-08-30T14:09:08.177Z,89.40
2018-08-30T14:11:38.706Z,89.60
2018-08-30T14:14:07.955Z,86.90
2018-08-30T14:16:37.226Z,80.90
2018-08-30T14:19:07.029Z,84.60
2018-08-30T14:21:36.176Z,81.00
2018-08-30T14:24:06.511Z,82.80
2018-08-30T14:26:36.069Z,83.60
2018-08-30T14:29:05.595Z,87.40
2018-08-30T14:31:34.997Z,85.50
2018-08-30T14:34:04.529Z,82.70
2018-08-30T14:36:35.245Z,82.70
2018-08-30T14:39:05.472Z,86.20
2018-08-30T14:41:34.879Z,89.90
2018-08-30T14:44:05.190Z,90.00
2018-08-30T14:46:34.700Z,91.20
2018-08-30T14:49:05.549Z,90.20
2018-08-30T14:51:35.888Z,91.90
2018-08-30T14:54:05.478Z,92.30
2018-08-30T14:56:34.934Z,93.70
2018-08-30T14:59:04.835Z,94.10
2018-08-30T15:01:34.395Z,95.90
2018-08-30T15:04:03.659Z,95.50
2018-08-30T15:06:33.092Z,96.60
2018-08-30T15:09:02.414Z,96.20
2018-08-30T15:11:31.808Z,96.40
2018-08-30T15:14:01.157Z,94.30
2018-08-30T15:16:30.651Z,93.40
2018-08-30T15:19:00.728Z,95.90
2018-08-30T15:21:30.198Z,93.60
2018-08-30T15:24:00.722Z,96.30
2018-08-30T15:26:30.125Z,94.60
2018-08-30T15:28:59.665Z,95.80
2018-08-30T15:31:29.051Z,94.70
2018-08-30T15:33:59.069Z,95.30
2018-08-30T15:36:29.603Z,93.00
2018-08-30T15:38:59.043Z,92.70
2018-08-30T15:41:28.532Z,93.20
2018-08-30T15:43:57.764Z,92.90
2018-08-30T15:46:27.100Z,91.80
2018-08-30T15:48:56.681Z,91.80
2018-08-30T15:51:25.921Z,92.50
2018-08-30T15:53:55.649Z,92.20
2018-08-30T15:56:25.029Z,88.90
2018-08-30T15:58:54.332Z,92.30
2018-08-30T16:01:23.715Z,91.80
2018-08-30T16:03:53.250Z,93.90
2018-08-30T16:06:22.708Z,94.40
2018-08-30T16:08:52.172Z,95.10
2018-08-30T16:11:21.565Z,94.90
2018-08-30T16:13:51.029Z,95.50
2018-08-30T16:16:20.758Z,96.10
2018-08-30T16:18:50.133Z,96.90
2018-08-30T16:21:19.576Z,94.70
2018-08-30T16:23:50.463Z,94.50
2018-08-30T16:26:19.913Z,95.00
2018-08-30T16:28:49.195Z,95.50
2018-08-30T16:31:18.568Z,95.30
2018-08-30T16:33:48.102Z,97.40
2018-08-30T16:36:17.661Z,97.80
2018-08-30T16:38:47.061Z,99.00
2018-08-30T16:41:16.637Z,99.10
2018-08-30T16:43:45.758Z,98.10
2018-08-30T16:46:15.275Z,97.60
2018-08-30T16:48:45.742Z,98.20
2018-08-30T16:51:14.994Z,97.10
2018-08-30T16:53:44.346Z,97.20
2018-08-30T16:56:13.680Z,96.90
2018-08-30T16:58:43.115Z,98.00
2018-08-30T17:01:12.480Z,98.40
2018-08-30T17:03:41.849Z,97.40
2018-08-30T17:06:11.201Z,96.30
2018-08-30T17:08:40.728Z,96.30
2018-08-30T17:11:10.122Z,95.60
2018-08-30T17:13:39.411Z,96.30
2018-08-30T17:16:08.762Z,95.10
2018-08-30T17:18:38.771Z,95.70
2018-08-30T17:21:08.294Z,95.40
2018-08-30T17:23:37.641Z,95.30
2018-08-30T17:26:07.010Z,93.90
2018-08-30T17:28:37.526Z,94.10
2018-08-30T17:31:06.959Z,93.80
2018-08-30T17:33:36.378Z,95.20
2018-08-30T17:36:05.931Z,95.00
2018-08-30T17:38:35.301Z,94.10
2018-08-30T17:41:04.865Z,95.30
2018-08-30T17:43:34.247Z,95.90
2018-08-30T17:46:03.720Z,95.60
2018-08-30T17:48:33.237Z,95.00
2018-08-30T17:51:02.793Z,96.60
2018-08-30T17:53:32.322Z,96.70
2018-08-30T17:56:02.378Z,97.20
2018-08-30T17:58:31.960Z,97.80
2018-08-30T18:01:01.334Z,98.20
2018-08-30T18:03:30.775Z,99.20
2018-08-30T18:06:00.100Z,99.50
2018-08-30T18:08:29.449Z,99.90
2018-08-30T18:10:58.996Z,99.90
2018-08-30T18:13:28.691Z,99.90
2018-08-30T18:15:58.746Z,99.90
2018-08-30T18:18:28.333Z,99.90
2018-08-30T18:20:59.178Z,99.90
2018-08-30T18:23:28.796Z,99.90
2018-08-30T18:25:58.722Z,99.90
2018-08-30T18:28:28.184Z,99.90
2018-08-30T18:30:57.731Z,99.90
2018-08-30T18:33:27.426Z,99.90
2018-08-30T18:35:58.159Z,99.90
2018-08-30T18:38:28.979Z,99.90
2018-08-30T18:40:58.458Z,99.90
2018-08-30T18:43:27.839Z,99.90
2018-08-30T18:45:57.225Z,99.90
2018-08-30T18:48:26.621Z,99.90
2018-08-30T18:50:55.976Z,99.90
2018-08-30T18:53:25.383Z,99.90
2018-08-30T18:55:54.730Z,99.90
2018-08-30T18:58:24.009Z,99.90
2018-08-30T19:00:53.619Z,99.90
2018-08-30T19:03:23.313Z,99.90
2018-08-30T19:05:52.745Z,99.90
2018-08-30T19:08:22.218Z,99.90
2018-08-30T19:10:51.795Z,99.90
2018-08-30T19:13:21.111Z,99.90
2018-08-30T19:15:55.819Z,99.90
2018-08-30T19:18:30.610Z,99.90
2018-08-30T19:21:00.086Z,99.90
2018-08-30T19:23:29.415Z,99.90
2018-08-30T19:25:58.733Z,99.90
2018-08-30T19:28:28.053Z,99.90
2018-08-30T19:30:57.405Z,99.90
2018-08-30T19:33:26.689Z,99.90
2018-08-30T19:36:01.334Z,99.90
2018-08-30T19:38:30.823Z,99.90
2018-08-30T19:41:05.326Z,99.90
2018-08-30T19:43:34.758Z,99.90
2018-08-30T19:46:04.177Z,99.90
2018-08-30T19:48:33.605Z,99.90
2018-08-30T19:51:02.969Z,99.90
2018-08-30T19:53:32.420Z,99.90
2018-08-30T19:56:01.887Z,99.90
2018-08-30T19:58:31.267Z,99.90
2018-08-30T20:01:00.673Z,99.90
2018-08-30T20:03:30.032Z,99.90
2018-08-30T20:05:59.601Z,99.90
2018-08-30T20:08:29.057Z,99.90
2018-08-30T20:10:58.435Z,99.90
2018-08-30T20:13:28.008Z,99.90
2018-08-30T20:15:57.714Z,99.90
2018-08-30T20:18:27.601Z,99.90
2018-08-30T20:20:57.023Z,99.90
2018-08-30T20:23:26.450Z,99.90
2018-08-30T20:25:55.796Z,99.90
2018-08-30T20:28:25.122Z,99.90
2018-08-30T20:30:54.515Z,99.90
2018-08-30T20:33:23.785Z,99.90
2018-08-30T20:35:53.224Z,99.90
2018-08-30T20:38:22.673Z,99.90
2018-08-30T20:40:52.072Z,99.90
2018-08-30T20:43:21.448Z,99.90
2018-08-30T20:45:50.855Z,99.90
2018-08-30T20:48:20.175Z,99.90
2018-08-30T20:50:49.763Z,99.90
2018-08-30T20:53:19.220Z,99.90
2018-08-30T20:55:48.778Z,99.90
2018-08-30T20:58:18.206Z,99.90
2018-08-30T21:00:47.584Z,99.90
2018-08-30T21:03:17.079Z,99.90
2018-08-30T21:05:46.649Z,99.90
2018-08-30T21:08:16.246Z,99.90
2018-08-30T21:10:45.787Z,99.90
2018-08-30T21:13:15.134Z,99.90
2018-08-30T21:15:44.668Z,99.90
2018-08-30T21:18:14.173Z,99.90
2018-08-30T21:20:43.718Z,99.90
2018-08-30T21:23:13.081Z,99.90
2018-08-30T21:25:42.410Z,99.90
2018-08-30T21:28:11.937Z,99.90
2018-08-30T21:30:41.463Z,99.90
2018-08-30T21:33:10.869Z,99.90
2018-08-30T21:35:40.482Z,99.90
2018-08-30T21:38:10.018Z,99.90
2018-08-30T21:40:39.579Z,99.90
2018-08-30T21:43:09.551Z,99.90
2018-08-30T21:45:39.025Z,99.90
2018-08-30T21:48:09.026Z,99.90
2018-08-30T21:50:38.398Z,99.90
2018-08-30T21:53:07.888Z,99.90
2018-08-30T21:55:37.222Z,99.90
2018-08-30T21:58:06.791Z,99.90
2018-08-30T22:00:36.355Z,99.90
2018-08-30T22:03:05.827Z,99.90
2018-08-30T22:05:36.045Z,99.90
2018-08-30T22:08:05.513Z,99.90
2018-08-30T22:10:35.154Z,99.90
2018-08-30T22:13:04.820Z,99.90
2018-08-30T22:15:34.187Z,99.90
2018-08-30T22:18:03.499Z,99.90
2018-08-30T22:20:32.849Z,99.90
2018-08-30T22:23:02.258Z,99.90
2018-08-30T22:25:32.398Z,99.90
2018-08-30T22:28:01.792Z,99.90
2018-08-30T22:30:31.096Z,99.90
2018-08-30T22:33:00.522Z,99.90
2018-08-30T22:35:29.976Z,99.90
2018-08-30T22:37:59.510Z,99.90
2018-08-30T22:40:28.912Z,99.90
2018-08-30T22:42:58.428Z,99.90
2018-08-30T22:45:27.887Z,99.90
2018-08-30T22:47:57.332Z,99.90
2018-08-30T22:50:26.853Z,99.90
2018-08-30T22:52:56.437Z,99.90
2018-08-30T22:55:25.967Z,99.90
2018-08-30T22:57:55.501Z,99.90
2018-08-30T23:00:24.868Z,99.90
2018-08-30T23:02:54.357Z,99.90
2018-08-30T23:05:23.819Z,99.90
2018-08-30T23:07:53.176Z,99.90
2018-08-30T23:10:23.229Z,99.90
2018-08-30T23:12:52.628Z,99.90
2018-08-30T23:15:22.004Z,99.90
2018-08-30T23:17:51.396Z,99.90
2018-08-30T23:20:20.785Z,99.90
2018-08-30T23:22:50.406Z,99.90
2018-08-30T23:25:19.803Z,99.90
2018-08-30T23:27:49.218Z,99.90
2018-08-30T23:30:18.602Z,99.90
2018-08-30T23:32:48.123Z,99.90
2018-08-30T23:35:17.593Z,99.90
2018-08-30T23:37:47.136Z,99.90
2018-08-30T23:40:16.614Z,99.90
2018-08-30T23:42:46.098Z,99.90
2018-08-30T23:45:16.464Z,99.90
2018-08-30T23:47:45.990Z,99.90
2018-08-30T23:50:15.425Z,99.90
2018-08-30T23:52:44.905Z,99.90
2018-08-30T23:55:14.296Z,99.90
2018-08-30T23:57:55.092Z,99.90
